Time;durP1;ratioP1;P1;durP2;ratioP2;P2;SDS_P1;SDS_P2;PMS_P1;PMS_P2;Temp;Humidity;BMP_temperature;BMP_pressure;BME280_temperature;BME280_humidity;BME280_pressure;Samples;Min_cycle;Max_cycle;Signal;HPM_P1;HPM_P2
2022/05/25 00:01:08;;;;;;;14.20;4.80;;;;;;;14.73;34.37;99217.98;25020;1317;3027225;-68
2022/05/25 00:03:38;;;;;;;15.10;5.90;;;;;;;14.75;34.40;99220.98;25026;1317;3051022;-70
2022/05/25 00:06:08;;;;;;;15.70;4.80;;;;;;;14.73;34.31;99225.53;25014;1317;3026376;-66
2022/05/25 00:08:38;;;;;;;21.10;5.30;;;;;;;14.73;34.52;99227.13;25058;1318;3026118;-66
2022/05/25 00:11:08;;;;;;;22.00;5.40;;;;;;;14.75;34.38;99229.61;25034;1317;3027967;-65
2022/05/25 00:13:37;;;;;;;16.60;4.80;;;;;;;14.72;34.58;99227.77;25023;1317;3026888;-67
2022/05/25 00:16:06;;;;;;;15.70;4.90;;;;;;;14.72;34.56;99227.92;24989;1317;3026499;-67
2022/05/25 00:18:35;;;;;;;15.60;5.60;;;;;;;14.78;34.67;99225.70;25003;1317;3026541;-67
2022/05/25 00:21:04;;;;;;;17.40;4.80;;;;;;;14.74;34.60;99235.48;25018;1317;3028174;-63
2022/05/25 00:23:34;;;;;;;11.20;4.80;;;;;;;14.77;34.58;99234.06;24976;1317;3058060;-69
2022/05/25 00:26:03;;;;;;;22.90;5.70;;;;;;;14.73;34.88;99230.81;25032;1317;3026868;-63
2022/05/25 00:28:35;;;;;;;19.70;5.70;;;;;;;14.70;34.59;99231.02;25022;1317;3055028;-63
2022/05/25 00:31:05;;;;;;;19.20;5.60;;;;;;;14.72;34.81;99234.48;25057;1316;3026263;-69
2022/05/25 00:33:34;;;;;;;14.70;5.20;;;;;;;14.66;34.81;99240.40;25021;1317;3054306;-68
2022/05/25 00:36:04;;;;;;;14.00;5.00;;;;;;;14.67;34.88;99240.69;25060;1317;3026289;-64
2022/05/25 00:38:33;;;;;;;11.20;5.00;;;;;;;14.64;35.21;99239.84;25087;1317;3026598;-67
2022/05/25 00:41:02;;;;;;;14.90;4.80;;;;;;;14.63;35.14;99243.83;24973;1317;3026306;-64
2022/05/25 00:43:31;;;;;;;18.60;5.10;;;;;;;14.61;35.09;99243.41;25099;1317;3051548;-67
2022/05/25 00:46:02;;;;;;;12.20;5.10;;;;;;;14.59;35.58;99243.74;25083;1317;3026150;-69
2022/05/25 00:48:36;;;;;;;16.50;5.30;;;;;;;14.53;36.03;99247.36;24923;1318;3053291;-62
2022/05/25 00:51:15;;;;;;;18.60;5.90;;;;;;;14.50;35.88;99246.94;25096;1315;3052340;-64
2022/05/25 00:54:06;;;;;;;18.00;6.30;;;;;;;14.51;36.05;99251.98;24998;1317;3058928;-65
2022/05/25 00:56:36;;;;;;;17.90;6.60;;;;;;;14.39;36.55;99253.61;25059;1317;3049255;-67
2022/05/25 00:59:16;;;;;;;19.60;8.00;;;;;;;14.32;36.81;99256.84;24970;1318;3026585;-66
2022/05/25 01:01:45;;;;;;;19.20;8.50;;;;;;;14.27;36.64;99257.73;25066;1317;3059171;-70
2022/05/25 01:04:15;;;;;;;23.30;9.00;;;;;;;14.28;36.44;99258.41;24978;1317;3026500;-66
2022/05/25 01:07:02;;;;;;;28.40;7.90;;;;;;;14.30;36.41;99260.11;25037;1317;3052901;-64
2022/05/25 01:10:04;;;;;;;21.00;6.20;;;;;;;14.29;36.75;99256.17;25027;1317;3057538;-64
2022/05/25 01:12:50;;;;;;;28.60;6.90;;;;;;;14.27;36.89;99256.34;25012;1317;3052833;-63
2022/05/25 01:15:38;;;;;;;20.30;5.80;;;;;;;14.24;37.15;99258.33;25003;1317;3055354;-65
2022/05/25 01:18:07;;;;;;;17.20;5.60;;;;;;;14.17;37.13;99260.29;25067;1317;3050350;-63
2022/05/25 01:21:19;;;;;;;19.10;6.00;;;;;;;14.18;37.34;99262.50;25076;1317;3026383;-69
2022/05/25 01:24:08;;;;;;;18.60;6.50;;;;;;;14.14;37.19;99266.55;25115;1318;3052261;-66
2022/05/25 01:27:05;;;;;;;25.20;8.00;;;;;;;14.19;37.33;99257.86;25053;1317;3055156;-66
2022/05/25 01:29:53;;;;;;;27.10;6.80;;;;;;;14.11;37.45;99266.20;25014;1317;3055256;-67
2022/05/25 01:32:34;;;;;;;20.00;5.90;;;;;;;14.07;37.59;99266.34;25020;1317;3058842;-70
2022/05/25 01:35:12;;;;;;;19.00;6.10;;;;;;;14.06;37.55;99265.90;25029;1317;3051520;-59
2022/05/25 01:38:00;;;;;;;16.00;6.10;;;;;;;14.02;38.10;99266.73;25048;1317;3054235;-64
2022/05/25 01:41:06;;;;;;;15.10;5.80;;;;;;;14.03;37.95;99268.23;24993;1317;3051477;-63
2022/05/25 01:43:52;;;;;;;16.50;5.30;;;;;;;14.01;38.17;99277.04;24982;1320;3071179;-68
2022/05/25 01:46:23;;;;;;;20.40;5.80;;;;;;;14.02;38.39;99279.07;24990;1318;3052217;-66
2022/05/25 01:48:54;;;;;;;21.20;6.90;;;;;;;13.98;38.54;99282.02;25159;1317;3026430;-62
2022/05/25 01:51:34;;;;;;;23.60;8.30;;;;;;;13.99;38.53;99282.98;25431;1317;3026739;-61
2022/05/25 01:54:04;;;;;;;26.20;7.80;;;;;;;13.89;39.28;99285.58;25428;1317;3057327;-59
2022/05/25 01:56:35;;;;;;;17.30;6.40;;;;;;;13.91;39.23;99285.50;25243;1317;3026415;-65
2022/05/25 01:59:06;;;;;;;20.00;7.70;;;;;;;13.85;39.39;99289.71;24982;1317;3026396;-66
2022/05/25 02:05:04;;;;;;;20.00;8.90;;;;;;;13.80;40.12;99295.58;24903;1324;3071190;-64
2022/05/25 02:07:52;;;;;;;19.00;6.40;;;;;;;13.80;40.14;99294.88;25007;1317;3026563;-65
2022/05/25 02:10:43;;;;;;;12.40;4.60;;;;;;;13.71;40.87;99296.38;25055;1317;3055286;-63
2022/05/25 02:13:55;;;;;;;18.10;6.00;;;;;;;13.76;41.04;99303.76;25005;1317;3054872;-67
2022/05/25 02:17:09;;;;;;;20.20;5.70;;;;;;;13.81;40.98;99307.80;24765;1323;3059394;-69
2022/05/25 02:19:43;;;;;;;15.00;5.40;;;;;;;13.88;40.91;99307.02;24740;1326;3049822;-65
2022/05/25 02:22:17;;;;;;;19.30;5.90;;;;;;;13.91;40.77;99303.84;24975;1317;3056041;-68
2022/05/25 02:25:01;;;;;;;22.50;5.50;;;;;;;13.85;41.08;99310.63;24986;1317;3053751;-66
2022/05/25 02:27:33;;;;;;;14.80;5.60;;;;;;;13.84;41.10;99311.25;25007;1317;3071353;-69
2022/05/25 02:30:05;;;;;;;16.60;6.10;;;;;;;13.79;41.48;99314.64;25020;1317;3026639;-68
2022/05/25 02:32:55;;;;;;;17.40;6.10;;;;;;;13.81;41.62;99314.99;24944;1318;3026272;-63
2022/05/25 02:35:24;;;;;;;23.90;6.00;;;;;;;13.76;41.86;99318.03;24999;1318;3055427;-65
2022/05/25 02:37:56;;;;;;;24.90;7.00;;;;;;;13.78;41.89;99324.37;24995;1320;3026649;-68
2022/05/25 02:40:28;;;;;;;15.50;6.00;;;;;;;13.71;42.29;99322.63;24986;1318;3054852;-67
2022/05/25 02:42:57;;;;;;;22.00;6.60;;;;;;;13.70;42.43;99323.73;25041;1317;3026994;-67
2022/05/25 02:45:26;;;;;;;19.50;5.50;;;;;;;13.71;42.17;99329.65;25029;1317;3026157;-65
2022/05/25 02:47:55;;;;;;;22.20;6.80;;;;;;;13.72;41.87;99328.33;25057;1317;3026357;-70
2022/05/25 02:50:24;;;;;;;16.40;6.70;;;;;;;13.77;41.90;99327.83;24992;1317;3055891;-64
2022/05/25 02:52:53;;;;;;;18.70;6.40;;;;;;;13.82;41.69;99325.10;25036;1317;3026737;-64
2022/05/25 02:55:23;;;;;;;21.30;7.40;;;;;;;13.85;41.81;99328.59;25052;1317;3055276;-65
2022/05/25 02:57:52;;;;;;;19.00;6.10;;;;;;;13.86;41.50;99329.73;24595;1317;3026743;-66
2022/05/25 03:00:21;;;;;;;19.10;6.30;;;;;;;13.89;41.67;99334.79;25071;1317;3048787;-68
2022/05/25 03:02:51;;;;;;;19.50;6.50;;;;;;;13.90;41.95;99332.65;25090;1318;3026235;-65
2022/05/25 03:05:20;;;;;;;17.80;6.20;;;;;;;13.94;41.90;99336.40;24998;1317;3026331;-65
2022/05/25 03:07:49;;;;;;;16.00;5.50;;;;;;;13.93;42.22;99339.23;25001;1317;3048802;-64
2022/05/25 03:10:18;;;;;;;22.60;6.00;;;;;;;13.93;42.09;99343.55;24989;1317;3026548;-68
2022/05/25 03:12:47;;;;;;;22.40;6.30;;;;;;;13.93;42.17;99340.88;25051;1316;3069400;-67
2022/05/25 03:15:20;;;;;;;23.70;5.70;;;;;;;13.99;41.94;99342.86;25039;1316;3026565;-69
2022/05/25 03:17:53;;;;;;;24.90;5.70;;;;;;;14.00;41.66;99344.00;25082;1317;3052548;-68
2022/05/25 03:20:22;;;;;;;24.70;7.60;;;;;;;14.06;41.59;99349.51;24998;1317;3026884;-65
2022/05/25 03:22:51;;;;;;;16.60;6.40;;;;;;;14.10;42.06;99347.50;25003;1317;3053781;-67
2022/05/25 03:25:20;;;;;;;18.50;5.60;;;;;;;14.11;42.15;99346.89;25001;1316;3026487;-64
2022/05/25 03:27:49;;;;;;;18.50;5.50;;;;;;;14.10;42.09;99351.34;25059;1317;3051528;-67
2022/05/25 03:30:20;;;;;;;19.90;5.80;;;;;;;14.16;41.88;99355.84;25057;1316;3026924;-66
2022/05/25 03:32:50;;;;;;;17.20;5.70;;;;;;;14.16;42.09;99356.87;25054;1317;3027028;-68
2022/05/25 03:35:19;;;;;;;17.90;6.00;;;;;;;14.15;42.48;99360.66;25059;1318;3026618;-65
2022/05/25 03:37:49;;;;;;;22.60;6.20;;;;;;;14.16;42.79;99360.09;25029;1317;3026811;-63
2022/05/25 03:40:18;;;;;;;22.30;6.60;;;;;;;14.15;42.76;99358.36;25000;1316;3026416;-63
2022/05/25 03:42:47;;;;;;;14.90;6.20;;;;;;;14.19;42.75;99359.11;25027;1316;3070299;-63
2022/05/25 03:45:16;;;;;;;13.70;6.00;;;;;;;14.30;42.48;99359.69;24955;1317;3026291;-65
2022/05/25 03:47:45;;;;;;;26.70;7.50;;;;;;;14.20;43.32;99365.18;25051;1317;3053487;-68
2022/05/25 03:50:15;;;;;;;18.30;6.50;;;;;;;14.20;43.24;99364.17;25014;1317;3026759;-66
2022/05/25 03:52:45;;;;;;;15.90;6.40;;;;;;;14.25;43.06;99361.27;24982;1317;3026865;-67
2022/05/25 03:55:14;;;;;;;18.70;6.50;;;;;;;14.33;43.06;99364.55;24988;1317;3026601;-67
2022/05/25 03:57:46;;;;;;;19.30;7.30;;;;;;;14.37;43.34;99372.38;24993;1317;3027727;-66
2022/05/25 04:00:16;;;;;;;22.20;6.60;;;;;;;14.39;43.32;99369.04;25029;1317;3027076;-64
2022/05/25 04:02:45;;;;;;;20.80;7.70;;;;;;;14.49;43.24;99372.98;25083;1316;3053531;-66
2022/05/25 04:05:14;;;;;;;20.90;7.40;;;;;;;14.44;43.44;99377.58;25014;1317;3026777;-65
2022/05/25 04:07:45;;;;;;;26.60;8.80;;;;;;;14.38;43.58;99376.00;24989;1317;3051275;-68
2022/05/25 04:10:19;;;;;;;31.70;10.60;;;;;;;14.40;43.86;99375.12;25003;1317;3027049;-63
2022/05/25 04:12:50;;;;;;;54.60;18.80;;;;;;;14.48;43.70;99379.44;24973;1317;3052976;-63
2022/05/25 04:15:21;;;;;;;57.60;22.60;;;;;;;14.49;43.86;99383.57;25028;1316;3026631;-64
2022/05/25 04:20:51;;;;;;;97.20;36.10;;;;;;;14.52;44.13;99385.44;31331;1318;3026647;-67
2022/05/25 04:23:20;;;;;;;199.50;61.80;;;;;;;14.74;43.57;99386.94;24896;1319;3026769;-64
2022/05/25 04:25:50;;;;;;;141.90;41.40;;;;;;;14.84;43.46;99387.59;24939;1318;3029874;-67
2022/05/25 04:28:20;;;;;;;123.30;32.90;;;;;;;14.73;43.23;99391.93;25002;1318;3026692;-68
2022/05/25 04:30:49;;;;;;;82.80;26.80;;;;;;;14.76;43.88;99392.59;25016;1318;3054322;-70
2022/05/25 04:33:18;;;;;;;58.80;19.60;;;;;;;14.77;44.03;99398.54;24757;1318;3331533;-65
2022/05/25 04:35:47;;;;;;;59.90;20.00;;;;;;;14.74;44.36;99398.74;25072;1315;3051905;-66
2022/05/25 04:38:16;;;;;;;44.90;16.40;;;;;;;14.77;44.27;99397.69;25081;1315;3026382;-67
2022/05/25 04:40:46;;;;;;;41.60;14.40;;;;;;;14.74;43.78;99397.17;25081;1313;3070938;-68
2022/05/25 04:43:19;;;;;;;48.20;15.80;;;;;;;14.72;43.40;99398.38;25070;1316;3029946;-66
2022/05/25 04:45:49;;;;;;;33.20;15.40;;;;;;;14.71;43.68;99404.85;25064;1313;3050658;-68
2022/05/25 04:48:21;;;;;;;33.60;13.40;;;;;;;14.79;43.81;99401.35;25059;1315;3026503;-68
2022/05/25 04:50:50;;;;;;;44.00;15.20;;;;;;;14.78;43.28;99401.09;25063;1313;3026318;-71
2022/05/25 04:53:20;;;;;;;41.30;17.50;;;;;;;14.83;43.00;99400.58;25127;1315;3026702;-66
2022/05/25 04:58:40;;;;;;;35.90;13.90;;;;;;;14.91;42.99;99405.67;25123;1313;3058690;-66
2022/05/25 05:01:10;;;;;;;43.90;13.90;;;;;;;14.97;43.13;99402.96;25128;1313;3026557;-65
2022/05/25 05:03:39;;;;;;;39.40;13.80;;;;;;;15.08;43.25;99401.38;25096;1315;3026393;-67
2022/05/25 05:06:09;;;;;;;44.00;16.40;;;;;;;15.15;43.10;99403.95;25125;1315;3027239;-68
2022/05/25 05:08:38;;;;;;;31.50;13.50;;;;;;;15.21;42.54;99409.98;25058;1315;3026503;-66
2022/05/25 05:11:12;;;;;;;27.00;10.70;;;;;;;15.29;42.12;99402.48;25118;1315;3052675;-65
2022/05/25 05:13:42;;;;;;;;;;;;;;;15.35;41.48;99408.21;25134;1315;3049461;-69
2022/05/25 05:16:16;;;;;;;24.90;9.20;;;;;;;15.46;41.78;99403.58;25110;1315;3026545;-69
2022/05/25 05:18:45;;;;;;;27.30;9.60;;;;;;;15.60;41.36;99404.23;25103;1316;3051918;-68
2022/05/25 05:21:44;;;;;;;27.90;9.00;;;;;;;15.81;40.69;99395.81;25060;1314;3054886;-70
2022/05/25 05:24:13;;;;;;;26.50;8.80;;;;;;;15.97;40.69;99398.51;25139;1314;3026412;-67
2022/05/25 05:26:42;;;;;;;27.20;6.70;;;;;;;16.12;40.04;99402.56;25126;1315;3052619;-67
2022/05/25 05:29:11;;;;;;;22.20;7.70;;;;;;;16.24;39.72;99404.23;25113;1315;3026413;-64
2022/05/25 05:31:40;;;;;;;21.80;7.20;;;;;;;16.33;39.11;99400.81;25072;1315;3070937;-65
2022/05/25 05:34:10;;;;;;;19.50;7.00;;;;;;;16.46;39.61;99399.15;25073;1315;3026281;-63
2022/05/25 05:36:45;;;;;;;20.60;6.60;;;;;;;16.59;39.32;99408.44;25112;1315;3026689;-66
2022/05/25 05:39:16;;;;;;;23.90;5.20;;;;;;;16.76;39.09;99408.44;25100;1315;3070758;-69
2022/05/25 05:41:49;;;;;;;23.30;5.70;;;;;;;16.83;38.59;99412.91;25142;1313;3026109;-63
2022/05/25 05:44:20;;;;;;;12.20;5.40;;;;;;;16.90;38.26;99413.42;25055;1315;3052815;-71
2022/05/25 05:46:49;;;;;;;28.30;5.40;;;;;;;16.95;37.65;99415.42;25150;1315;3026474;-66
2022/05/25 05:49:19;;;;;;;26.40;8.80;;;;;;;16.85;37.05;99416.44;25083;1315;3026739;-66
2022/05/25 05:51:54;;;;;;;41.00;14.00;;;;;;;16.86;36.76;99414.27;25037;1315;3050841;-68
2022/05/25 05:54:23;;;;;;;35.20;12.20;;;;;;;16.87;36.67;99423.16;25092;1315;3026917;-68
2022/05/25 05:56:52;;;;;;;29.20;14.00;;;;;;;16.93;36.74;99418.64;25064;1315;3055995;-69
2022/05/25 05:59:21;;;;;;;45.80;14.80;;;;;;;17.00;36.71;99421.92;25078;1315;3026659;-69
2022/05/25 06:01:50;;;;;;;45.90;15.30;;;;;;;17.17;36.57;99422.40;25054;1314;3026766;-69
2022/05/25 06:04:20;;;;;;;30.80;11.90;;;;;;;17.34;36.45;99428.15;25073;1317;3056532;-68
2022/05/25 06:06:49;;;;;;;33.00;12.20;;;;;;;17.46;35.46;99431.29;25085;1315;3026502;-71
2022/05/25 06:09:18;;;;;;;31.70;11.40;;;;;;;17.59;35.84;99428.90;25058;1315;3054559;-66
2022/05/25 06:11:47;;;;;;;42.90;12.70;;;;;;;17.66;35.72;99436.27;25147;1315;3026829;-68
2022/05/25 06:14:16;;;;;;;35.70;13.00;;;;;;;17.72;35.73;99436.50;25156;1315;3053847;-64
2022/05/25 06:19:37;;;;;;;45.10;15.70;;;;;;;17.92;35.53;99439.58;25040;1315;3059351;-62
2022/05/25 06:22:13;;;;;;;37.70;14.30;;;;;;;18.03;35.15;99438.19;25071;1315;3026602;-68
2022/05/25 06:24:44;;;;;;;33.80;10.50;;;;;;;18.12;34.47;99438.41;25089;1315;3052850;-68
2022/05/25 06:27:13;;;;;;;20.80;10.00;;;;;;;18.11;34.19;99442.09;25109;1315;3027589;-69
2022/05/25 06:29:44;;;;;;;31.40;10.00;;;;;;;18.13;34.46;99448.11;25091;1315;3027347;-64
2022/05/25 06:32:14;;;;;;;29.30;9.50;;;;;;;18.22;34.19;99445.86;25131;1315;3026910;-64
2022/05/25 06:34:48;;;;;;;24.40;7.70;;;;;;;18.29;33.86;99448.70;25067;1315;3026501;-66
2022/05/25 06:37:20;;;;;;;28.40;8.60;;;;;;;18.45;34.15;99444.28;25088;1315;3027217;-68
2022/05/25 06:39:49;;;;;;;37.90;11.60;;;;;;;18.62;34.13;99445.38;25076;1314;3026333;-64
2022/05/25 06:42:18;;;;;;;35.40;11.70;;;;;;;18.63;33.98;99450.05;25091;1315;3026577;-69
2022/05/25 06:44:55;;;;;;;29.70;9.80;;;;;;;18.58;33.62;99453.70;25293;1315;3055199;-63
2022/05/25 06:47:27;;;;;;;27.90;9.70;;;;;;;18.64;32.58;99455.08;25410;1315;3025989;-64
2022/05/25 06:49:56;;;;;;;27.70;8.20;;;;;;;18.78;32.06;99453.58;25464;1315;3029563;-65
2022/05/25 06:52:25;;;;;;;22.20;6.50;;;;;;;18.89;31.76;99457.13;25299;1315;3026519;-67
2022/05/25 06:54:55;;;;;;;14.20;5.50;;;;;;;18.93;30.04;99460.35;25139;1313;3052388;-64
2022/05/25 06:57:27;;;;;;;12.20;3.90;;;;;;;18.93;28.68;99466.70;25086;1315;3027660;-69
2022/05/25 06:59:56;;;;;;;8.80;3.50;;;;;;;19.08;28.49;99465.46;25172;1315;3026755;-68
2022/05/25 07:02:25;;;;;;;12.10;3.90;;;;;;;19.17;28.30;99467.65;25108;1315;3026605;-67
2022/05/25 07:04:55;;;;;;;11.10;3.60;;;;;;;19.31;28.17;99464.89;25124;1315;3071122;-64
2022/05/25 07:07:24;;;;;;;20.30;5.60;;;;;;;19.45;28.71;99468.81;25055;1315;3027416;-63
2022/05/25 07:09:57;;;;;;;18.50;6.30;;;;;;;19.39;30.04;99471.31;25107;1315;3026356;-69
2022/05/25 07:12:26;;;;;;;19.10;5.30;;;;;;;19.54;29.89;99466.34;25071;1315;3026551;-67
2022/05/25 07:14:55;;;;;;;10.80;4.30;;;;;;;19.61;28.72;99468.37;25124;1315;3026677;-64
2022/05/25 07:17:24;;;;;;;10.50;3.20;;;;;;;19.53;27.98;99474.94;25050;1315;3051891;-66
2022/05/25 07:19:53;;;;;;;10.00;2.80;;;;;;;19.41;27.86;99472.95;25126;1315;3027948;-65
2022/05/25 07:22:22;;;;;;;13.90;3.30;;;;;;;19.45;27.95;99467.38;25025;1313;3026577;-63
2022/05/25 07:24:52;;;;;;;13.50;4.50;;;;;;;19.61;28.01;99463.14;25051;1315;3054624;-66
2022/05/25 07:27:21;;;;;;;11.40;4.00;;;;;;;19.72;27.73;99468.27;25111;1316;3026592;-65
2022/05/25 07:29:50;;;;;;;15.30;4.90;;;;;;;19.63;28.61;99467.81;25062;1315;3027048;-67
2022/05/25 07:32:20;;;;;;;11.60;4.40;;;;;;;19.65;28.85;99470.23;25129;1315;3054073;-68
2022/05/25 07:34:54;;;;;;;9.00;3.30;;;;;;;19.63;28.40;99470.05;25190;1313;3026680;-69
2022/05/25 07:37:23;;;;;;;15.70;4.30;;;;;;;19.72;28.26;99465.81;25098;1315;3051655;-67
2022/05/25 07:40:04;;;;;;;13.20;3.40;;;;;;;19.77;28.93;99473.86;25080;1313;3026355;-65
2022/05/25 07:42:33;;;;;;;16.70;4.70;;;;;;;19.90;29.05;99468.33;25153;1317;3069722;-66
2022/05/25 07:45:04;;;;;;;16.70;4.30;;;;;;;20.03;29.50;99476.08;25140;1315;3026446;-69
2022/05/25 07:47:33;;;;;;;16.40;5.50;;;;;;;20.15;29.13;99480.40;25036;1316;3026339;-67
2022/05/25 07:50:04;;;;;;;21.50;3.70;;;;;;;20.07;28.91;99480.33;25087;1313;3027335;-69
2022/05/25 07:52:35;;;;;;;9.30;4.00;;;;;;;20.03;29.10;99477.73;25130;1318;3026150;-69
2022/05/25 07:55:08;;;;;;;19.30;4.30;;;;;;;20.09;29.29;99482.12;25082;1315;3051907;-68
2022/05/25 07:57:38;;;;;;;17.40;4.50;;;;;;;20.00;29.55;99479.77;25100;1315;3027946;-69
2022/05/25 08:00:08;;;;;;;21.00;4.80;;;;;;;20.24;29.84;99476.91;25083;1315;3026329;-68
2022/05/25 08:05:43;;;;;;;9.80;3.50;;;;;;;20.47;28.76;99483.40;25143;1315;3048890;-69
2022/05/25 08:08:22;;;;;;;8.80;3.70;;;;;;;20.31;29.12;99484.49;25144;1313;3052659;-69
2022/05/25 08:10:54;;;;;;;20.90;6.60;;;;;;;20.24;29.17;99487.40;25078;1318;3054981;-66
2022/05/25 08:13:24;;;;;;;12.80;3.90;;;;;;;20.48;29.02;99479.57;25072;1315;3026712;-67
2022/05/25 08:15:53;;;;;;;12.00;3.30;;;;;;;20.74;28.63;99483.16;25062;1318;3029767;-69
2022/05/25 08:18:22;;;;;;;18.00;5.20;;;;;;;20.61;28.00;99487.55;25079;1315;3051837;-66
2022/05/25 08:20:52;;;;;;;18.10;5.20;;;;;;;20.61;27.86;99491.83;25137;1317;3027335;-68
2022/05/25 08:23:21;;;;;;;12.40;4.40;;;;;;;20.59;27.78;99489.48;25078;1318;3028901;-66
2022/05/25 08:25:51;;;;;;;16.20;4.40;;;;;;;20.66;27.57;99486.50;25137;1314;3054606;-65
2022/05/25 08:28:20;;;;;;;10.50;3.40;;;;;;;20.74;27.10;99482.83;25142;1318;3028213;-69
2022/05/25 08:30:50;;;;;;;16.50;3.40;;;;;;;20.77;26.77;99487.54;25126;1315;3026498;-65
2022/05/25 08:33:20;;;;;;;11.30;4.30;;;;;;;20.90;26.04;99490.81;25148;1313;3026901;-64
2022/05/25 08:35:52;;;;;;;10.00;2.90;;;;;;;21.05;25.94;99489.65;25056;1316;3054974;-67
2022/05/25 08:38:22;;;;;;;10.20;3.50;;;;;;;21.13;25.80;99489.35;25110;1316;3026687;-69
2022/05/25 08:40:51;;;;;;;11.40;3.70;;;;;;;21.17;25.95;99488.53;25152;1315;3055411;-65
2022/05/25 08:43:37;;;;;;;12.20;4.30;;;;;;;21.48;25.82;99493.17;25127;1316;3026718;-66
2022/05/25 08:46:06;;;;;;;16.70;3.90;;;;;;;21.39;26.07;99503.92;25069;1315;3051977;-65
2022/05/25 08:48:35;;;;;;;12.20;3.50;;;;;;;21.31;26.60;99492.45;25123;1313;3026302;-64
2022/05/25 08:51:07;;;;;;;9.70;3.30;;;;;;;21.73;26.11;99490.19;25086;1316;3026561;-65
2022/05/25 08:53:37;;;;;;;10.40;3.20;;;;;;;21.94;25.20;99487.33;25064;1316;3049089;-64
2022/05/25 08:56:34;;;;;;;11.90;3.50;;;;;;;22.19;24.94;99485.98;25144;1313;3027145;-61
2022/05/25 08:59:08;;;;;;;9.10;3.00;;;;;;;22.36;24.96;99495.33;25129;1315;3054828;-64
2022/05/25 09:01:50;;;;;;;9.60;2.60;;;;;;;22.29;24.18;99495.77;25057;1313;3071648;-63
2022/05/25 09:04:34;;;;;;;15.20;3.40;;;;;;;21.92;24.70;99498.96;25061;1316;3051916;-66
2022/05/25 09:07:11;;;;;;;7.10;2.80;;;;;;;21.94;24.87;99492.02;25207;1313;3055189;-64
2022/05/25 09:09:45;;;;;;;14.70;3.00;;;;;;;21.84;24.84;99492.00;25154;1315;3054804;-63
2022/05/25 09:12:24;;;;;;;10.80;3.30;;;;;;;21.48;25.68;99496.36;25126;1315;3026623;-65
2022/05/25 09:15:18;;;;;;;12.40;3.60;;;;;;;21.37;26.01;99492.87;25096;1316;3052178;-62
2022/05/25 09:17:58;;;;;;;17.10;3.40;;;;;;;21.32;26.36;99495.77;25169;1313;3053573;-65
2022/05/25 09:20:38;;;;;;;13.30;3.20;;;;;;;21.40;26.68;99497.73;25129;1313;3053364;-62
2022/05/25 09:23:08;;;;;;;9.20;3.10;;;;;;;21.27;26.52;99498.68;25165;1313;3069619;-64
2022/05/25 09:25:38;;;;;;;7.10;3.00;;;;;;;21.49;26.10;99497.70;25070;1313;3026392;-63
2022/05/25 09:28:14;;;;;;;13.90;3.50;;;;;;;21.80;25.82;99498.71;25091;1315;3028082;-63
2022/05/25 09:30:44;;;;;;;10.40;2.90;;;;;;;21.91;25.43;99495.59;25095;1315;3068530;-63
2022/05/25 09:33:35;;;;;;;8.60;3.00;;;;;;;21.90;25.48;99502.27;25137;1315;3026773;-64
2022/05/25 09:36:19;;;;;;;9.50;3.00;;;;;;;21.88;25.56;99497.89;25149;1313;3054405;-65
2022/05/25 09:39:16;;;;;;;12.60;3.10;;;;;;;22.00;25.23;99500.11;25125;1315;3052338;-66
2022/05/25 09:41:45;;;;;;;10.50;3.00;;;;;;;22.21;24.42;99497.83;25108;1315;3058007;-63
2022/05/25 09:44:16;;;;;;;13.90;3.20;;;;;;;22.55;24.84;99500.23;25090;1315;3026422;-63
2022/05/25 09:46:54;;;;;;;9.90;3.30;;;;;;;22.70;24.37;99496.02;25147;1313;3026470;-67
2022/05/25 09:49:44;;;;;;;7.60;3.00;;;;;;;22.64;24.98;99498.39;25127;1315;3051395;-63
2022/05/25 09:52:48;;;;;;;7.60;2.90;;;;;;;22.61;24.86;99505.61;25119;1315;3071056;-63
2022/05/25 09:55:24;;;;;;;8.50;3.00;;;;;;;22.93;24.53;99497.27;24880;1321;3052048;-63
2022/05/25 09:57:58;;;;;;;9.00;2.90;;;;;;;23.16;24.11;99499.37;25058;1315;3053196;-64
2022/05/25 10:00:34;;;;;;;5.60;3.00;;;;;;;23.03;24.42;99496.48;25143;1313;3051901;-64
2022/05/25 10:03:11;;;;;;;12.80;3.60;;;;;;;23.38;24.32;99497.91;25111;1313;3058343;-64
2022/05/25 10:05:55;;;;;;;9.40;3.60;;;;;;;23.60;24.48;99498.70;25014;1313;3049708;-63
2022/05/25 10:08:32;;;;;;;11.40;3.70;;;;;;;23.70;24.44;99495.91;25146;1313;3055213;-64
2022/05/25 10:11:27;;;;;;;10.10;3.70;;;;;;;23.59;24.01;99501.48;25131;1313;3050402;-62
2022/05/25 10:14:15;;;;;;;11.50;3.70;;;;;;;23.31;23.80;99495.20;25209;1313;3071481;-64
2022/05/25 10:16:44;;;;;;;6.70;3.20;;;;;;;23.41;23.81;99487.94;25066;1318;3051763;-63
2022/05/25 10:19:16;;;;;;;10.00;3.30;;;;;;;23.65;22.29;99487.19;25155;1313;3027264;-64
2022/05/25 10:21:51;;;;;;;5.50;2.70;;;;;;;23.71;22.46;99489.94;25067;1313;3071184;-66
2022/05/25 10:24:40;;;;;;;7.60;2.70;;;;;;;23.78;21.94;99481.34;25115;1313;3049010;-67
2022/05/25 10:27:23;;;;;;;9.10;3.00;;;;;;;23.64;21.81;99476.95;25418;1315;3052746;-63
2022/05/25 10:38:27;;;;;;;13.80;2.90;;;;;;;23.47;20.74;99471.39;25103;1313;3055835;-63
2022/05/25 10:40:57;;;;;;;16.60;4.30;;;;;;;23.37;21.63;99475.77;25140;1313;3053951;-63
2022/05/25 10:43:30;;;;;;;18.00;5.20;;;;;;;23.22;22.42;99473.66;25089;1316;3026441;-63
2022/05/25 10:46:00;;;;;;;12.20;4.60;;;;;;;23.46;22.37;99474.51;25272;1313;3026847;-62
2022/05/25 10:48:52;;;;;;;9.30;4.20;;;;;;;23.27;21.46;99479.14;25140;1315;3026595;-64
2022/05/25 10:51:28;;;;;;;8.40;4.10;;;;;;;23.10;21.80;99479.27;25104;1313;3054124;-64
2022/05/25 10:57:24;;;;;;;12.40;4.20;;;;;;;23.22;21.01;99473.20;25156;1315;3049633;-64
2022/05/25 11:00:16;;;;;;;15.10;4.60;;;;;;;23.54;20.89;99471.27;25094;1313;3053763;-62
2022/05/25 11:03:13;;;;;;;15.80;4.70;;;;;;;23.84;20.87;99470.14;25084;1313;3052915;-64
2022/05/25 11:06:00;;;;;;;9.40;4.00;;;;;;;23.99;20.86;99463.74;25116;1313;3070078;-64
2022/05/25 11:08:54;;;;;;;8.60;4.30;;;;;;;24.20;20.38;99457.55;25119;1313;3048976;-63
2022/05/25 11:11:27;;;;;;;10.60;4.40;;;;;;;24.18;20.54;99458.75;25163;1314;3054868;-64
2022/05/25 11:14:18;;;;;;;13.10;4.30;;;;;;;23.86;21.44;99462.58;25067;1313;3054761;-63
2022/05/25 11:17:06;;;;;;;16.50;5.00;;;;;;;23.84;21.74;99469.27;25048;1316;3058879;-63
2022/05/25 11:19:39;;;;;;;11.90;4.10;;;;;;;23.59;22.07;99462.16;25106;1313;3049601;-62
2022/05/25 11:22:33;;;;;;;14.00;4.00;;;;;;;23.47;22.09;99464.58;25050;1316;3026852;-63
2022/05/25 11:25:23;;;;;;;12.60;4.50;;;;;;;23.31;22.18;99465.71;25058;1313;3051095;-65
2022/05/25 11:28:08;;;;;;;12.40;4.40;;;;;;;23.10;22.22;99466.58;25081;1313;3068512;-62
2022/05/25 11:31:10;;;;;;;15.10;4.60;;;;;;;22.96;23.08;99473.41;25118;1313;3051313;-64
2022/05/25 11:33:54;;;;;;;9.60;4.70;;;;;;;22.79;23.29;99468.11;25119;1313;3054592;-63
2022/05/25 11:36:49;;;;;;;12.60;4.90;;;;;;;22.72;23.35;99468.77;25136;1315;3052793;-64
2022/05/25 11:39:31;;;;;;;18.00;5.00;;;;;;;23.03;22.76;99462.20;25156;1313;3059306;-64
2022/05/25 11:42:15;;;;;;;14.50;5.00;;;;;;;23.61;22.54;99454.90;25156;1313;3049771;-64
2022/05/25 11:44:49;;;;;;;17.20;6.20;;;;;;;24.19;22.31;99459.84;25183;1313;3055016;-64
2022/05/25 11:47:52;;;;;;;13.90;6.60;;;;;;;24.41;22.22;99455.07;25094;1313;3027036;-65
2022/05/25 11:50:31;;;;;;;17.50;6.10;;;;;;;24.59;22.12;99456.84;25074;1313;3070148;-62
2022/05/25 11:53:34;;;;;;;13.60;5.70;;;;;;;24.83;21.81;99462.14;25139;1313;3049684;-63
2022/05/25 11:56:16;;;;;;;16.70;5.70;;;;;;;24.72;21.47;99456.11;25084;1313;3054984;-63
2022/05/25 11:58:52;;;;;;;22.80;6.00;;;;;;;24.80;21.07;99450.61;25107;1313;3055426;-64
2022/05/25 12:01:28;;;;;;;15.20;6.10;;;;;;;24.83;20.87;99454.49;25129;1313;3057228;-64
2022/05/25 12:04:30;;;;;;;12.80;4.70;;;;;;;24.92;20.38;99451.47;25086;1313;3054059;-64
2022/05/25 12:07:08;;;;;;;16.10;4.80;;;;;;;25.01;21.44;99451.70;25129;1313;3055144;-64
2022/05/25 12:09:43;;;;;;;9.80;4.50;;;;;;;24.96;21.72;99451.23;25114;1313;3054106;-65
2022/05/25 12:12:16;;;;;;;9.50;4.50;;;;;;;24.99;21.58;99445.52;25096;1313;3068600;-65